Saturday, July 21, 2018, 3:35 PM EDT
Back to Local

KMMK, Meriden Markham Municipal Airport

Location: Meriden, CT, United States Lat: 41.517
Local Time: 3:35 PM EDT (19:35 GMT) Lon: -72.833
Time Zone: US/Eastern Elev: 101 ft

Show me the last for .
Show Decoded

2018-07-21 14:53 METAR KMMK 211853Z AUTO 14008KT 100V180 10SM FEW044 26/14 A3007 RMK AO2 SLP182
                 T02560144 $ =
2018-07-21 13:53 METAR KMMK 211753Z AUTO 15010G16KT 10SM CLR 25/13 A3009 RMK AO2 SLP186 T02500133
                 10256 20189 58020 $ =
2018-07-21 12:53 METAR KMMK 211653Z AUTO 11008G15KT 10SM CLR 25/13 A3011 RMK AO2 SLP194 T02500128
                 $ =
2018-07-21 11:53 METAR KMMK 211553Z AUTO 14006KT 10SM CLR 23/12 A3013 RMK AO2 SLP202 T02330122 $
                 =
2018-07-21 10:53 METAR KMMK 211453Z AUTO 13007KT 10SM CLR 23/12 A3014 RMK AO2 SLP206 T02330117
                 51004 $ =
2018-07-21 09:53 METAR KMMK 211353Z AUTO VRB06KT 10SM CLR 22/11 A3014 RMK AO2 SLP205 T02170111 $
                 =
2018-07-21 08:53 METAR KMMK 211253Z AUTO 13008KT 10SM CLR 21/12 A3014 RMK AO2 SLP205 T02060122 $
                 =
2018-07-21 07:53 METAR KMMK 211153Z AUTO 00000KT 10SM CLR 19/14 A3013 RMK AO2 SLP202 T01940144
                 10194 20144 55001 $ =
2018-07-21 07:11 METAR KMMK 211111Z AUTO 00000KT 10SM FEW025 17/15 A3013 RMK AO2 T01720150 $ =
2018-07-21 06:53 METAR KMMK 211053Z AUTO 00000KT 10SM BKN025 17/14 A3013 RMK AO2 SLP201 T01670144
                 $ =
2018-07-21 06:36 METAR KMMK 211036Z AUTO 00000KT 10SM BKN025 16/14 A3013 RMK AO2 T01560144 $ =
2018-07-21 05:53 METAR KMMK 210953Z AUTO 32003KT 10SM CLR 14/14 A3013 RMK AO2 SLP202 T01440139 $
                 =
2018-07-21 04:53 METAR KMMK 210853Z AUTO 00000KT 10SM CLR 15/14 A3014 RMK AO2 SLP203 T01500139
                 53001 $ =
2018-07-21 03:53 METAR KMMK 210753Z AUTO 00000KT 10SM CLR 15/14 A3013 RMK AO2 SLP201 T01500139 $
                 =
2018-07-21 02:53 METAR KMMK 210653Z AUTO 00000KT 10SM CLR 15/14 A3013 RMK AO2 SLP201 T01500139 $
                 =
2018-07-21 01:53 METAR KMMK 210553Z AUTO 00000KT 10SM CLR 16/14 A3013 RMK AO2 SLP203 T01560139
                 10239 20156 56004 $ =
2018-07-21 00:53 METAR KMMK 210453Z AUTO 00000KT 10SM CLR 16/14 A3014 RMK AO2 SLP204 T01610144
                 402830133 $ =
2018-07-20 23:53 METAR KMMK 210353Z AUTO 00000KT 10SM CLR 17/15 A3014 RMK AO2 SLP205 T01670150 $
                 =
2018-07-20 22:53 METAR KMMK 210253Z AUTO 00000KT 10SM CLR 18/15 A3015 RMK AO2 SLP207 T01780150
                 51007 $ =
2018-07-20 21:53 METAR KMMK 210153Z AUTO 00000KT 10SM CLR 19/15 A3014 RMK AO2 SLP206 T01890150 $
                 =
2018-07-20 20:53 METAR KMMK 210053Z AUTO 17003KT 10SM CLR 21/14 A3013 RMK AO2 SLP202 T02110139 $
                 =
2018-07-20 19:53 METAR KMMK 202353Z AUTO 18006KT 10SM CLR 24/13 A3012 RMK AO2 SLP199 T02390128
                 10283 20239 55002 $ =
2018-07-20 18:53 METAR KMMK 202253Z AUTO 18007KT 10SM CLR 26/13 A3012 RMK AO2 SLP197 T02560133 $
                 =
2018-07-20 17:53 METAR KMMK 202153Z AUTO 18008KT 10SM CLR 27/13 A3012 RMK AO2 SLP198 T02670133 $
                 =
2018-07-20 16:53 METAR KMMK 202053Z AUTO 20010KT 150V240 10SM CLR 27/14 A3013 RMK AO2 SLP201
                 T02670139 56008 $ =
2018-07-20 15:53 METAR KMMK 201953Z AUTO 18013KT 10SM CLR 28/12 A3013 RMK AO2 SLP201 T02780122 $
                 =

Support USWX by starting your Amazon purchase here.